sensor_id;sensor_type;location;lat;lon;timestamp;P1;durP1;ratioP1;P2;durP2;ratioP2
42192;SDS011;52467;40.114;18.306;2023-08-12T00:01:18;0.10;;;0.10;;
42192;SDS011;52467;40.114;18.306;2023-08-12T00:03:47;0.10;;;0.10;;
42192;SDS011;52467;40.114;18.306;2023-08-12T00:06:15;0.10;;;0.10;;
42192;SDS011;52467;40.114;18.306;2023-08-12T00:08:42;0.10;;;0.10;;
42192;SDS011;52467;40.114;18.306;2023-08-12T00:11:10;0.10;;;0.10;;
42192;SDS011;52467;40.114;18.306;2023-08-12T00:13:37;0.17;;;0.17;;
42192;SDS011;52467;40.114;18.306;2023-08-12T00:16:04;0.10;;;0.10;;
42192;SDS011;52467;40.114;18.306;2023-08-12T00:18:32;0.10;;;0.10;;
42192;SDS011;52467;40.114;18.306;2023-08-12T00:21:06;0.10;;;0.10;;
42192;SDS011;52467;40.114;18.306;2023-08-12T00:23:37;0.10;;;0.10;;
42192;SDS011;52467;40.114;18.306;2023-08-12T00:26:07;0.10;;;0.10;;
42192;SDS011;52467;40.114;18.306;2023-08-12T00:28:34;0.10;;;0.10;;
42192;SDS011;52467;40.114;18.306;2023-08-12T00:31:02;0.10;;;0.10;;
42192;SDS011;52467;40.114;18.306;2023-08-12T00:33:29;0.10;;;0.10;;
42192;SDS011;52467;40.114;18.306;2023-08-12T00:35:57;0.10;;;0.10;;
42192;SDS011;52467;40.114;18.306;2023-08-12T00:38:24;0.10;;;0.10;;
42192;SDS011;52467;40.114;18.306;2023-08-12T00:40:52;0.10;;;0.10;;
42192;SDS011;52467;40.114;18.306;2023-08-12T00:43:19;0.10;;;0.10;;
42192;SDS011;52467;40.114;18.306;2023-08-12T00:45:47;0.10;;;0.10;;
42192;SDS011;52467;40.114;18.306;2023-08-12T00:48:14;0.10;;;0.10;;
42192;SDS011;52467;40.114;18.306;2023-08-12T00:50:43;0.10;;;0.10;;
42192;SDS011;52467;40.114;18.306;2023-08-12T00:53:12;0.10;;;0.10;;
42192;SDS011;52467;40.114;18.306;2023-08-12T00:55:40;0.10;;;0.10;;
42192;SDS011;52467;40.114;18.306;2023-08-12T00:58:07;0.10;;;0.10;;
42192;SDS011;52467;40.114;18.306;2023-08-12T01:00:35;0.10;;;0.10;;
42192;SDS011;52467;40.114;18.306;2023-08-12T01:03:03;0.10;;;0.10;;
42192;SDS011;52467;40.114;18.306;2023-08-12T01:05:32;0.10;;;0.10;;
42192;SDS011;52467;40.114;18.306;2023-08-12T01:08:01;0.10;;;0.10;;
42192;SDS011;52467;40.114;18.306;2023-08-12T01:10:33;0.10;;;0.10;;
42192;SDS011;52467;40.114;18.306;2023-08-12T01:15:36;0.10;;;0.10;;
42192;SDS011;52467;40.114;18.306;2023-08-12T01:18:04;0.10;;;0.10;;
42192;SDS011;52467;40.114;18.306;2023-08-12T01:20:32;0.10;;;0.10;;
42192;SDS011;52467;40.114;18.306;2023-08-12T01:23:12;0.10;;;0.10;;
42192;SDS011;52467;40.114;18.306;2023-08-12T01:25:41;0.10;;;0.10;;
42192;SDS011;52467;40.114;18.306;2023-08-12T01:28:09;0.10;;;0.10;;
42192;SDS011;52467;40.114;18.306;2023-08-12T01:30:43;0.10;;;0.10;;
42192;SDS011;52467;40.114;18.306;2023-08-12T01:35:57;0.10;;;0.10;;
42192;SDS011;52467;40.114;18.306;2023-08-12T01:38:31;0.10;;;0.10;;
42192;SDS011;52467;40.114;18.306;2023-08-12T01:40:59;0.10;;;0.10;;
42192;SDS011;52467;40.114;18.306;2023-08-12T01:43:27;0.10;;;0.10;;
42192;SDS011;52467;40.114;18.306;2023-08-12T01:45:56;0.20;;;0.20;;
42192;SDS011;52467;40.114;18.306;2023-08-12T01:48:23;0.10;;;0.10;;
42192;SDS011;52467;40.114;18.306;2023-08-12T01:50:51;0.10;;;0.10;;
42192;SDS011;52467;40.114;18.306;2023-08-12T01:53:18;0.10;;;0.10;;
42192;SDS011;52467;40.114;18.306;2023-08-12T01:55:45;0.10;;;0.10;;
42192;SDS011;52467;40.114;18.306;2023-08-12T01:58:13;0.10;;;0.10;;
42192;SDS011;52467;40.114;18.306;2023-08-12T02:00:40;0.10;;;0.10;;
42192;SDS011;52467;40.114;18.306;2023-08-12T02:03:07;0.10;;;0.10;;
42192;SDS011;52467;40.114;18.306;2023-08-12T02:05:35;0.10;;;0.10;;
42192;SDS011;52467;40.114;18.306;2023-08-12T02:08:04;0.10;;;0.10;;
42192;SDS011;52467;40.114;18.306;2023-08-12T02:10:34;0.10;;;0.10;;
42192;SDS011;52467;40.114;18.306;2023-08-12T02:13:02;0.10;;;0.10;;
42192;SDS011;52467;40.114;18.306;2023-08-12T02:15:29;0.10;;;0.10;;
42192;SDS011;52467;40.114;18.306;2023-08-12T02:17:58;0.10;;;0.10;;
42192;SDS011;52467;40.114;18.306;2023-08-12T02:20:26;0.10;;;0.10;;
42192;SDS011;52467;40.114;18.306;2023-08-12T02:22:54;0.10;;;0.10;;
42192;SDS011;52467;40.114;18.306;2023-08-12T02:25:21;0.10;;;0.10;;
42192;SDS011;52467;40.114;18.306;2023-08-12T02:27:48;0.10;;;0.10;;
42192;SDS011;52467;40.114;18.306;2023-08-12T02:30:16;0.10;;;0.10;;
42192;SDS011;52467;40.114;18.306;2023-08-12T02:32:43;0.10;;;0.10;;
42192;SDS011;52467;40.114;18.306;2023-08-12T02:35:11;0.10;;;0.10;;
42192;SDS011;52467;40.114;18.306;2023-08-12T02:37:38;0.10;;;0.10;;
42192;SDS011;52467;40.114;18.306;2023-08-12T02:40:06;0.10;;;0.10;;
42192;SDS011;52467;40.114;18.306;2023-08-12T02:42:34;0.10;;;0.10;;
42192;SDS011;52467;40.114;18.306;2023-08-12T02:45:01;0.10;;;0.10;;
42192;SDS011;52467;40.114;18.306;2023-08-12T02:47:29;0.10;;;0.10;;
42192;SDS011;52467;40.114;18.306;2023-08-12T02:49:57;0.10;;;0.10;;
42192;SDS011;52467;40.114;18.306;2023-08-12T02:52:24;0.10;;;0.10;;
42192;SDS011;52467;40.114;18.306;2023-08-12T02:54:52;0.10;;;0.10;;
42192;SDS011;52467;40.114;18.306;2023-08-12T02:57:19;0.10;;;0.10;;
42192;SDS011;52467;40.114;18.306;2023-08-12T02:59:46;0.10;;;0.10;;
42192;SDS011;52467;40.114;18.306;2023-08-12T03:02:14;0.10;;;0.10;;
42192;SDS011;52467;40.114;18.306;2023-08-12T03:04:43;0.10;;;0.10;;
42192;SDS011;52467;40.114;18.306;2023-08-12T03:07:10;0.10;;;0.10;;
42192;SDS011;52467;40.114;18.306;2023-08-12T03:09:38;0.10;;;0.10;;
42192;SDS011;52467;40.114;18.306;2023-08-12T03:12:06;0.10;;;0.10;;
42192;SDS011;52467;40.114;18.306;2023-08-12T03:14:34;0.10;;;0.10;;
42192;SDS011;52467;40.114;18.306;2023-08-12T03:17:01;0.10;;;0.10;;
42192;SDS011;52467;40.114;18.306;2023-08-12T03:19:31;0.10;;;0.10;;
42192;SDS011;52467;40.114;18.306;2023-08-12T03:21:59;0.10;;;0.10;;
42192;SDS011;52467;40.114;18.306;2023-08-12T03:24:27;0.10;;;0.10;;
42192;SDS011;52467;40.114;18.306;2023-08-12T03:26:55;0.10;;;0.10;;
42192;SDS011;52467;40.114;18.306;2023-08-12T03:29:22;0.10;;;0.10;;
42192;SDS011;52467;40.114;18.306;2023-08-12T03:31:50;0.10;;;0.10;;
42192;SDS011;52467;40.114;18.306;2023-08-12T03:34:18;0.10;;;0.10;;
42192;SDS011;52467;40.114;18.306;2023-08-12T03:36:45;0.10;;;0.10;;
42192;SDS011;52467;40.114;18.306;2023-08-12T03:39:16;0.10;;;0.10;;
42192;SDS011;52467;40.114;18.306;2023-08-12T03:41:44;0.10;;;0.10;;
42192;SDS011;52467;40.114;18.306;2023-08-12T03:44:12;0.10;;;0.10;;
42192;SDS011;52467;40.114;18.306;2023-08-12T03:46:39;0.10;;;0.10;;
42192;SDS011;52467;40.114;18.306;2023-08-12T03:49:07;0.10;;;0.10;;
42192;SDS011;52467;40.114;18.306;2023-08-12T03:51:34;0.10;;;0.10;;
42192;SDS011;52467;40.114;18.306;2023-08-12T03:54:02;0.10;;;0.10;;
42192;SDS011;52467;40.114;18.306;2023-08-12T03:56:31;0.10;;;0.10;;
42192;SDS011;52467;40.114;18.306;2023-08-12T03:59:01;0.10;;;0.10;;
42192;SDS011;52467;40.114;18.306;2023-08-12T04:01:29;0.10;;;0.10;;
42192;SDS011;52467;40.114;18.306;2023-08-12T04:03:57;0.10;;;0.10;;
42192;SDS011;52467;40.114;18.306;2023-08-12T04:06:24;0.10;;;0.10;;
42192;SDS011;52467;40.114;18.306;2023-08-12T04:08:51;0.10;;;0.10;;
42192;SDS011;52467;40.114;18.306;2023-08-12T04:11:19;0.10;;;0.10;;
42192;SDS011;52467;40.114;18.306;2023-08-12T04:13:46;0.10;;;0.10;;
42192;SDS011;52467;40.114;18.306;2023-08-12T04:16:14;0.10;;;0.10;;
42192;SDS011;52467;40.114;18.306;2023-08-12T04:18:41;0.10;;;0.10;;
42192;SDS011;52467;40.114;18.306;2023-08-12T04:21:09;0.10;;;0.10;;
42192;SDS011;52467;40.114;18.306;2023-08-12T04:23:37;0.10;;;0.10;;
42192;SDS011;52467;40.114;18.306;2023-08-12T04:26:05;0.10;;;0.10;;
42192;SDS011;52467;40.114;18.306;2023-08-12T04:28:34;0.10;;;0.10;;
42192;SDS011;52467;40.114;18.306;2023-08-12T04:31:05;0.10;;;0.10;;
42192;SDS011;52467;40.114;18.306;2023-08-12T04:33:34;0.10;;;0.10;;
42192;SDS011;52467;40.114;18.306;2023-08-12T04:36:02;0.10;;;0.10;;
42192;SDS011;52467;40.114;18.306;2023-08-12T04:38:31;0.10;;;0.10;;
42192;SDS011;52467;40.114;18.306;2023-08-12T04:40:59;0.10;;;0.10;;
42192;SDS011;52467;40.114;18.306;2023-08-12T04:43:27;0.10;;;0.10;;
42192;SDS011;52467;40.114;18.306;2023-08-12T04:45:54;0.10;;;0.10;;
42192;SDS011;52467;40.114;18.306;2023-08-12T04:48:22;0.10;;;0.10;;
42192;SDS011;52467;40.114;18.306;2023-08-12T04:50:49;0.10;;;0.10;;
42192;SDS011;52467;40.114;18.306;2023-08-12T04:53:17;0.10;;;0.10;;
42192;SDS011;52467;40.114;18.306;2023-08-12T04:55:45;0.10;;;0.10;;
42192;SDS011;52467;40.114;18.306;2023-08-12T04:58:17;0.10;;;0.10;;
42192;SDS011;52467;40.114;18.306;2023-08-12T05:00:45;0.10;;;0.10;;
42192;SDS011;52467;40.114;18.306;2023-08-12T05:03:13;0.10;;;0.10;;
42192;SDS011;52467;40.114;18.306;2023-08-12T05:05:41;0.10;;;0.10;;
42192;SDS011;52467;40.114;18.306;2023-08-12T05:08:08;0.10;;;0.10;;
42192;SDS011;52467;40.114;18.306;2023-08-12T05:10:36;0.10;;;0.10;;
42192;SDS011;52467;40.114;18.306;2023-08-12T05:13:04;0.10;;;0.10;;
42192;SDS011;52467;40.114;18.306;2023-08-12T05:15:31;0.10;;;0.10;;
42192;SDS011;52467;40.114;18.306;2023-08-12T05:17:58;0.10;;;0.10;;
42192;SDS011;52467;40.114;18.306;2023-08-12T05:20:26;0.10;;;0.10;;
42192;SDS011;52467;40.114;18.306;2023-08-12T05:22:54;0.10;;;0.10;;
42192;SDS011;52467;40.114;18.306;2023-08-12T05:25:22;0.10;;;0.10;;
42192;SDS011;52467;40.114;18.306;2023-08-12T05:27:49;0.10;;;0.10;;
42192;SDS011;52467;40.114;18.306;2023-08-12T05:30:17;0.10;;;0.10;;
42192;SDS011;52467;40.114;18.306;2023-08-12T05:32:44;0.10;;;0.10;;
42192;SDS011;52467;40.114;18.306;2023-08-12T05:35:11;0.10;;;0.10;;
42192;SDS011;52467;40.114;18.306;2023-08-12T05:37:39;0.10;;;0.10;;
42192;SDS011;52467;40.114;18.306;2023-08-12T05:40:08;0.10;;;0.10;;
42192;SDS011;52467;40.114;18.306;2023-08-12T05:42:36;0.10;;;0.10;;
42192;SDS011;52467;40.114;18.306;2023-08-12T05:45:03;0.10;;;0.10;;
42192;SDS011;52467;40.114;18.306;2023-08-12T05:47:32;0.10;;;0.10;;
42192;SDS011;52467;40.114;18.306;2023-08-12T05:49:59;0.10;;;0.10;;
42192;SDS011;52467;40.114;18.306;2023-08-12T05:52:27;0.10;;;0.10;;
42192;SDS011;52467;40.114;18.306;2023-08-12T05:54:54;0.10;;;0.10;;
42192;SDS011;52467;40.114;18.306;2023-08-12T05:57:21;0.10;;;0.10;;
42192;SDS011;52467;40.114;18.306;2023-08-12T05:59:49;0.10;;;0.10;;
42192;SDS011;52467;40.114;18.306;2023-08-12T06:02:16;0.10;;;0.10;;
42192;SDS011;52467;40.114;18.306;2023-08-12T06:04:44;0.10;;;0.10;;
42192;SDS011;52467;40.114;18.306;2023-08-12T06:07:11;0.10;;;0.10;;
42192;SDS011;52467;40.114;18.306;2023-08-12T06:09:39;0.10;;;0.10;;
42192;SDS011;52467;40.114;18.306;2023-08-12T06:12:07;0.10;;;0.10;;
42192;SDS011;52467;40.114;18.306;2023-08-12T06:14:36;0.10;;;0.10;;
42192;SDS011;52467;40.114;18.306;2023-08-12T06:17:05;0.10;;;0.10;;
42192;SDS011;52467;40.114;18.306;2023-08-12T06:19:32;0.10;;;0.10;;
42192;SDS011;52467;40.114;18.306;2023-08-12T06:22:00;0.10;;;0.10;;
42192;SDS011;52467;40.114;18.306;2023-08-12T06:24:27;0.10;;;0.10;;
42192;SDS011;52467;40.114;18.306;2023-08-12T06:26:54;0.10;;;0.10;;
42192;SDS011;52467;40.114;18.306;2023-08-12T06:29:22;0.10;;;0.10;;
42192;SDS011;52467;40.114;18.306;2023-08-12T06:31:49;0.10;;;0.10;;
42192;SDS011;52467;40.114;18.306;2023-08-12T06:34:17;0.10;;;0.10;;
42192;SDS011;52467;40.114;18.306;2023-08-12T06:36:44;0.10;;;0.10;;
42192;SDS011;52467;40.114;18.306;2023-08-12T06:39:11;0.10;;;0.10;;
42192;SDS011;52467;40.114;18.306;2023-08-12T06:41:39;0.10;;;0.10;;
42192;SDS011;52467;40.114;18.306;2023-08-12T06:44:06;0.10;;;0.10;;
42192;SDS011;52467;40.114;18.306;2023-08-12T06:46:33;0.10;;;0.10;;
42192;SDS011;52467;40.114;18.306;2023-08-12T06:49:01;0.10;;;0.10;;
42192;SDS011;52467;40.114;18.306;2023-08-12T06:51:28;0.10;;;0.10;;
42192;SDS011;52467;40.114;18.306;2023-08-12T06:53:55;0.07;;;0.07;;
42192;SDS011;52467;40.114;18.306;2023-08-12T06:56:23;0.10;;;0.10;;
42192;SDS011;52467;40.114;18.306;2023-08-12T06:58:50;0.10;;;0.10;;
42192;SDS011;52467;40.114;18.306;2023-08-12T07:01:17;0.10;;;0.10;;
42192;SDS011;52467;40.114;18.306;2023-08-12T07:03:44;0.10;;;0.10;;
42192;SDS011;52467;40.114;18.306;2023-08-12T07:06:12;0.10;;;0.10;;
42192;SDS011;52467;40.114;18.306;2023-08-12T07:08:41;0.10;;;0.10;;
42192;SDS011;52467;40.114;18.306;2023-08-12T07:11:08;0.10;;;0.10;;
42192;SDS011;52467;40.114;18.306;2023-08-12T07:13:36;0.10;;;0.10;;
42192;SDS011;52467;40.114;18.306;2023-08-12T07:16:03;0.10;;;0.10;;
42192;SDS011;52467;40.114;18.306;2023-08-12T07:18:30;0.10;;;0.10;;
42192;SDS011;52467;40.114;18.306;2023-08-12T07:20:58;0.10;;;0.10;;
42192;SDS011;52467;40.114;18.306;2023-08-12T07:23:26;0.10;;;0.10;;
42192;SDS011;52467;40.114;18.306;2023-08-12T07:25:54;0.10;;;0.10;;
42192;SDS011;52467;40.114;18.306;2023-08-12T07:28:21;0.10;;;0.10;;
42192;SDS011;52467;40.114;18.306;2023-08-12T07:30:49;0.10;;;0.10;;
42192;SDS011;52467;40.114;18.306;2023-08-12T07:33:16;0.10;;;0.10;;
42192;SDS011;52467;40.114;18.306;2023-08-12T07:35:44;0.10;;;0.10;;
42192;SDS011;52467;40.114;18.306;2023-08-12T07:38:11;0.10;;;0.10;;
42192;SDS011;52467;40.114;18.306;2023-08-12T07:40:38;0.10;;;0.10;;
42192;SDS011;52467;40.114;18.306;2023-08-12T07:43:07;0.10;;;0.10;;
42192;SDS011;52467;40.114;18.306;2023-08-12T07:45:34;0.10;;;0.10;;
42192;SDS011;52467;40.114;18.306;2023-08-12T07:48:02;0.10;;;0.10;;
42192;SDS011;52467;40.114;18.306;2023-08-12T07:50:29;0.10;;;0.10;;
42192;SDS011;52467;40.114;18.306;2023-08-12T07:52:57;0.10;;;0.10;;
42192;SDS011;52467;40.114;18.306;2023-08-12T07:55:24;0.10;;;0.10;;
42192;SDS011;52467;40.114;18.306;2023-08-12T07:57:53;0.10;;;0.10;;
42192;SDS011;52467;40.114;18.306;2023-08-12T08:00:20;0.10;;;0.10;;
42192;SDS011;52467;40.114;18.306;2023-08-12T08:02:48;0.10;;;0.10;;
42192;SDS011;52467;40.114;18.306;2023-08-12T08:05:15;0.10;;;0.10;;
42192;SDS011;52467;40.114;18.306;2023-08-12T08:07:43;0.10;;;0.10;;
42192;SDS011;52467;40.114;18.306;2023-08-12T08:10:10;0.10;;;0.10;;
42192;SDS011;52467;40.114;18.306;2023-08-12T08:12:37;0.10;;;0.10;;
42192;SDS011;52467;40.114;18.306;2023-08-12T08:15:05;0.10;;;0.10;;
42192;SDS011;52467;40.114;18.306;2023-08-12T08:17:33;0.10;;;0.10;;
42192;SDS011;52467;40.114;18.306;2023-08-12T08:20:01;0.10;;;0.10;;
42192;SDS011;52467;40.114;18.306;2023-08-12T08:22:29;0.10;;;0.10;;
42192;SDS011;52467;40.114;18.306;2023-08-12T08:24:58;0.10;;;0.10;;
42192;SDS011;52467;40.114;18.306;2023-08-12T08:27:25;0.10;;;0.10;;
42192;SDS011;52467;40.114;18.306;2023-08-12T08:29:53;0.10;;;0.10;;
42192;SDS011;52467;40.114;18.306;2023-08-12T08:32:20;0.10;;;0.10;;
42192;SDS011;52467;40.114;18.306;2023-08-12T08:34:48;0.10;;;0.10;;
42192;SDS011;52467;40.114;18.306;2023-08-12T08:37:15;0.10;;;0.10;;
42192;SDS011;52467;40.114;18.306;2023-08-12T08:39:43;0.10;;;0.10;;
42192;SDS011;52467;40.114;18.306;2023-08-12T08:42:10;0.10;;;0.10;;
42192;SDS011;52467;40.114;18.306;2023-08-12T08:44:39;0.10;;;0.10;;
42192;SDS011;52467;40.114;18.306;2023-08-12T08:47:09;0.10;;;0.10;;
42192;SDS011;52467;40.114;18.306;2023-08-12T08:49:37;0.10;;;0.10;;
42192;SDS011;52467;40.114;18.306;2023-08-12T08:52:04;0.10;;;0.10;;
42192;SDS011;52467;40.114;18.306;2023-08-12T08:54:32;0.00;;;0.00;;
42192;SDS011;52467;40.114;18.306;2023-08-12T08:56:59;0.10;;;0.10;;
42192;SDS011;52467;40.114;18.306;2023-08-12T08:59:27;0.10;;;0.10;;
42192;SDS011;52467;40.114;18.306;2023-08-12T09:01:54;0.10;;;0.10;;
42192;SDS011;52467;40.114;18.306;2023-08-12T09:04:23;0.10;;;0.10;;
42192;SDS011;52467;40.114;18.306;2023-08-12T09:06:51;0.10;;;0.10;;
42192;SDS011;52467;40.114;18.306;2023-08-12T09:09:20;0.10;;;0.10;;
42192;SDS011;52467;40.114;18.306;2023-08-12T09:11:48;0.10;;;0.10;;
42192;SDS011;52467;40.114;18.306;2023-08-12T09:14:16;0.10;;;0.10;;
42192;SDS011;52467;40.114;18.306;2023-08-12T09:16:43;0.10;;;0.10;;
42192;SDS011;52467;40.114;18.306;2023-08-12T09:19:10;0.10;;;0.10;;
42192;SDS011;52467;40.114;18.306;2023-08-12T09:21:39;0.10;;;0.10;;
42192;SDS011;52467;40.114;18.306;2023-08-12T09:24:08;0.10;;;0.10;;
42192;SDS011;52467;40.114;18.306;2023-08-12T09:26:35;0.10;;;0.10;;
42192;SDS011;52467;40.114;18.306;2023-08-12T09:29:02;0.10;;;0.10;;
42192;SDS011;52467;40.114;18.306;2023-08-12T09:31:30;0.10;;;0.10;;
42192;SDS011;52467;40.114;18.306;2023-08-12T09:34:00;0.00;;;0.00;;
42192;SDS011;52467;40.114;18.306;2023-08-12T09:36:31;0.10;;;0.10;;
42192;SDS011;52467;40.114;18.306;2023-08-12T09:39:00;0.10;;;0.10;;
42192;SDS011;52467;40.114;18.306;2023-08-12T09:41:32;0.10;;;0.10;;
42192;SDS011;52467;40.114;18.306;2023-08-12T09:44:02;0.10;;;0.10;;
42192;SDS011;52467;40.114;18.306;2023-08-12T09:46:29;0.10;;;0.10;;
42192;SDS011;52467;40.114;18.306;2023-08-12T09:49:00;0.10;;;0.10;;
42192;SDS011;52467;40.114;18.306;2023-08-12T09:51:30;0.10;;;0.10;;
42192;SDS011;52467;40.114;18.306;2023-08-12T09:54:02;0.10;;;0.10;;
42192;SDS011;52467;40.114;18.306;2023-08-12T09:56:30;0.10;;;0.10;;
42192;SDS011;52467;40.114;18.306;2023-08-12T09:59:02;0.10;;;0.10;;
42192;SDS011;52467;40.114;18.306;2023-08-12T10:01:34;0.10;;;0.10;;
42192;SDS011;52467;40.114;18.306;2023-08-12T10:04:01;0.10;;;0.10;;
42192;SDS011;52467;40.114;18.306;2023-08-12T10:06:32;0.10;;;0.10;;
42192;SDS011;52467;40.114;18.306;2023-08-12T10:09:00;0.10;;;0.10;;
42192;SDS011;52467;40.114;18.306;2023-08-12T10:11:27;0.10;;;0.10;;
42192;SDS011;52467;40.114;18.306;2023-08-12T10:13:55;0.10;;;0.10;;
42192;SDS011;52467;40.114;18.306;2023-08-12T10:16:23;0.10;;;0.10;;
42192;SDS011;52467;40.114;18.306;2023-08-12T10:18:51;0.10;;;0.10;;
42192;SDS011;52467;40.114;18.306;2023-08-12T10:21:18;0.10;;;0.10;;
42192;SDS011;52467;40.114;18.306;2023-08-12T10:23:47;0.10;;;0.10;;
42192;SDS011;52467;40.114;18.306;2023-08-12T10:26:19;0.10;;;0.10;;
42192;SDS011;52467;40.114;18.306;2023-08-12T10:28:48;0.10;;;0.10;;
42192;SDS011;52467;40.114;18.306;2023-08-12T10:31:16;0.10;;;0.10;;
42192;SDS011;52467;40.114;18.306;2023-08-12T10:33:45;0.10;;;0.10;;
42192;SDS011;52467;40.114;18.306;2023-08-12T10:36:16;0.08;;;0.08;;
42192;SDS011;52467;40.114;18.306;2023-08-12T10:38:45;0.10;;;0.10;;
42192;SDS011;52467;40.114;18.306;2023-08-12T10:43:53;0.10;;;0.10;;
42192;SDS011;52467;40.114;18.306;2023-08-12T10:48:56;0.10;;;0.10;;
42192;SDS011;52467;40.114;18.306;2023-08-12T10:51:41;0.00;;;0.00;;
42192;SDS011;52467;40.114;18.306;2023-08-12T10:54:13;0.00;;;0.00;;
42192;SDS011;52467;40.114;18.306;2023-08-12T11:02:16;0.10;;;0.10;;
42192;SDS011;52467;40.114;18.306;2023-08-12T11:04:43;0.10;;;0.10;;
42192;SDS011;52467;40.114;18.306;2023-08-12T11:07:15;0.10;;;0.10;;
42192;SDS011;52467;40.114;18.306;2023-08-12T11:09:45;0.10;;;0.10;;
42192;SDS011;52467;40.114;18.306;2023-08-12T11:12:17;0.10;;;0.10;;
42192;SDS011;52467;40.114;18.306;2023-08-12T11:15:03;0.10;;;0.10;;
42192;SDS011;52467;40.114;18.306;2023-08-12T11:17:35;0.10;;;0.10;;
42192;SDS011;52467;40.114;18.306;2023-08-12T11:20:07;0.00;;;0.00;;
42192;SDS011;52467;40.114;18.306;2023-08-12T11:22:40;0.10;;;0.10;;
42192;SDS011;52467;40.114;18.306;2023-08-12T11:25:09;0.03;;;0.03;;
42192;SDS011;52467;40.114;18.306;2023-08-12T11:27:38;0.10;;;0.10;;
42192;SDS011;52467;40.114;18.306;2023-08-12T11:30:07;0.10;;;0.10;;
42192;SDS011;52467;40.114;18.306;2023-08-12T11:32:38;0.10;;;0.10;;
42192;SDS011;52467;40.114;18.306;2023-08-12T11:35:06;0.10;;;0.10;;
42192;SDS011;52467;40.114;18.306;2023-08-12T11:37:35;0.10;;;0.10;;
42192;SDS011;52467;40.114;18.306;2023-08-12T11:40:04;0.10;;;0.10;;
42192;SDS011;52467;40.114;18.306;2023-08-12T11:42:33;0.10;;;0.10;;
42192;SDS011;52467;40.114;18.306;2023-08-12T11:45:00;0.10;;;0.10;;
42192;SDS011;52467;40.114;18.306;2023-08-12T11:47:29;0.10;;;0.10;;
42192;SDS011;52467;40.114;18.306;2023-08-12T11:49:56;0.10;;;0.10;;
42192;SDS011;52467;40.114;18.306;2023-08-12T11:52:23;0.10;;;0.10;;
42192;SDS011;52467;40.114;18.306;2023-08-12T11:54:51;0.10;;;0.10;;
42192;SDS011;52467;40.114;18.306;2023-08-12T11:57:19;0.10;;;0.10;;
42192;SDS011;52467;40.114;18.306;2023-08-12T11:59:46;0.00;;;0.00;;
42192;SDS011;52467;40.114;18.306;2023-08-12T12:02:13;0.07;;;0.07;;
42192;SDS011;52467;40.114;18.306;2023-08-12T12:04:42;0.10;;;0.10;;
42192;SDS011;52467;40.114;18.306;2023-08-12T12:07:24;0.10;;;0.10;;
42192;SDS011;52467;40.114;18.306;2023-08-12T12:09:53;0.10;;;0.10;;
42192;SDS011;52467;40.114;18.306;2023-08-12T12:12:24;0.05;;;0.05;;
42192;SDS011;52467;40.114;18.306;2023-08-12T12:14:52;0.10;;;0.10;;
42192;SDS011;52467;40.114;18.306;2023-08-12T12:17:24;0.10;;;0.10;;
42192;SDS011;52467;40.114;18.306;2023-08-12T12:19:52;0.10;;;0.10;;
42192;SDS011;52467;40.114;18.306;2023-08-12T12:22:30;0.10;;;0.10;;
42192;SDS011;52467;40.114;18.306;2023-08-12T12:25:00;0.10;;;0.10;;
42192;SDS011;52467;40.114;18.306;2023-08-12T12:27:36;0.10;;;0.10;;
42192;SDS011;52467;40.114;18.306;2023-08-12T12:30:08;0.10;;;0.10;;
42192;SDS011;52467;40.114;18.306;2023-08-12T12:32:37;0.10;;;0.10;;
42192;SDS011;52467;40.114;18.306;2023-08-12T12:35:04;0.10;;;0.10;;
42192;SDS011;52467;40.114;18.306;2023-08-12T12:37:36;0.10;;;0.10;;
42192;SDS011;52467;40.114;18.306;2023-08-12T12:40:06;0.10;;;0.10;;
42192;SDS011;52467;40.114;18.306;2023-08-12T12:42:34;0.10;;;0.10;;
42192;SDS011;52467;40.114;18.306;2023-08-12T12:45:01;0.20;;;0.20;;
42192;SDS011;52467;40.114;18.306;2023-08-12T12:47:30;0.20;;;0.20;;
42192;SDS011;52467;40.114;18.306;2023-08-12T12:49:57;0.20;;;0.20;;
42192;SDS011;52467;40.114;18.306;2023-08-12T12:52:25;0.20;;;0.20;;
42192;SDS011;52467;40.114;18.306;2023-08-12T12:54:52;0.10;;;0.10;;
42192;SDS011;52467;40.114;18.306;2023-08-12T12:57:19;0.20;;;0.20;;
42192;SDS011;52467;40.114;18.306;2023-08-12T12:59:47;0.30;;;0.30;;
42192;SDS011;52467;40.114;18.306;2023-08-12T13:02:15;0.30;;;0.30;;
42192;SDS011;52467;40.114;18.306;2023-08-12T13:04:42;0.30;;;0.30;;
42192;SDS011;52467;40.114;18.306;2023-08-12T13:07:11;0.30;;;0.30;;
42192;SDS011;52467;40.114;18.306;2023-08-12T13:09:38;0.40;;;0.40;;
42192;SDS011;52467;40.114;18.306;2023-08-12T13:12:07;0.40;;;0.40;;
42192;SDS011;52467;40.114;18.306;2023-08-12T13:14:34;0.40;;;0.40;;
42192;SDS011;52467;40.114;18.306;2023-08-12T13:17:02;0.40;;;0.40;;
42192;SDS011;52467;40.114;18.306;2023-08-12T13:19:29;0.30;;;0.30;;
42192;SDS011;52467;40.114;18.306;2023-08-12T13:21:58;0.30;;;0.30;;
42192;SDS011;52467;40.114;18.306;2023-08-12T13:24:26;0.30;;;0.30;;
42192;SDS011;52467;40.114;18.306;2023-08-12T13:26:53;0.30;;;0.30;;
42192;SDS011;52467;40.114;18.306;2023-08-12T13:29:21;0.40;;;0.40;;
42192;SDS011;52467;40.114;18.306;2023-08-12T13:31:48;0.40;;;0.40;;
42192;SDS011;52467;40.114;18.306;2023-08-12T13:34:16;0.40;;;0.40;;
42192;SDS011;52467;40.114;18.306;2023-08-12T13:36:44;0.50;;;0.50;;
42192;SDS011;52467;40.114;18.306;2023-08-12T13:39:11;0.40;;;0.40;;
42192;SDS011;52467;40.114;18.306;2023-08-12T13:41:39;0.40;;;0.40;;
42192;SDS011;52467;40.114;18.306;2023-08-12T13:44:06;0.40;;;0.40;;
42192;SDS011;52467;40.114;18.306;2023-08-12T13:46:33;0.57;;;0.57;;
42192;SDS011;52467;40.114;18.306;2023-08-12T13:49:01;0.60;;;0.60;;
42192;SDS011;52467;40.114;18.306;2023-08-12T13:51:28;0.60;;;0.60;;
42192;SDS011;52467;40.114;18.306;2023-08-12T13:53:56;0.60;;;0.60;;
42192;SDS011;52467;40.114;18.306;2023-08-12T13:56:23;0.70;;;0.70;;
42192;SDS011;52467;40.114;18.306;2023-08-12T13:58:51;0.70;;;0.70;;
42192;SDS011;52467;40.114;18.306;2023-08-12T14:01:18;0.70;;;0.70;;
42192;SDS011;52467;40.114;18.306;2023-08-12T14:03:45;0.68;;;0.68;;
42192;SDS011;52467;40.114;18.306;2023-08-12T14:06:13;0.70;;;0.70;;
42192;SDS011;52467;40.114;18.306;2023-08-12T14:08:40;0.63;;;0.63;;
42192;SDS011;52467;40.114;18.306;2023-08-12T14:11:08;0.60;;;0.60;;
42192;SDS011;52467;40.114;18.306;2023-08-12T14:13:35;0.60;;;0.60;;
42192;SDS011;52467;40.114;18.306;2023-08-12T14:16:02;0.70;;;0.70;;
42192;SDS011;52467;40.114;18.306;2023-08-12T14:18:30;0.60;;;0.60;;
42192;SDS011;52467;40.114;18.306;2023-08-12T14:20:58;0.60;;;0.60;;
42192;SDS011;52467;40.114;18.306;2023-08-12T14:23:25;0.70;;;0.70;;
42192;SDS011;52467;40.114;18.306;2023-08-12T14:25:52;0.70;;;0.70;;
42192;SDS011;52467;40.114;18.306;2023-08-12T14:28:20;0.80;;;0.80;;
42192;SDS011;52467;40.114;18.306;2023-08-12T14:30:47;0.90;;;0.90;;
42192;SDS011;52467;40.114;18.306;2023-08-12T14:33:15;0.90;;;0.90;;
42192;SDS011;52467;40.114;18.306;2023-08-12T14:35:42;1.00;;;1.00;;
42192;SDS011;52467;40.114;18.306;2023-08-12T14:38:09;1.00;;;1.00;;
42192;SDS011;52467;40.114;18.306;2023-08-12T14:40:37;0.98;;;0.98;;
42192;SDS011;52467;40.114;18.306;2023-08-12T14:43:04;0.90;;;0.90;;
42192;SDS011;52467;40.114;18.306;2023-08-12T14:45:32;0.80;;;0.80;;
42192;SDS011;52467;40.114;18.306;2023-08-12T14:47:59;0.70;;;0.70;;
42192;SDS011;52467;40.114;18.306;2023-08-12T14:50:26;0.60;;;0.60;;
42192;SDS011;52467;40.114;18.306;2023-08-12T14:52:55;0.60;;;0.60;;
42192;SDS011;52467;40.114;18.306;2023-08-12T14:55:22;0.70;;;0.70;;